createdAt,value
2018-10-11T00:00:59.897Z,34.47
2018-10-11T00:03:31.441Z,32.03
2018-10-11T00:06:03.193Z,34.23
2018-10-11T00:08:34.346Z,30.67
2018-10-11T00:11:06.251Z,31.93
2018-10-11T00:13:37.546Z,32.23
2018-10-11T00:16:08.964Z,33.00
2018-10-11T00:18:39.996Z,35.77
2018-10-11T00:21:11.104Z,32.20
2018-10-11T00:23:42.395Z,34.95
2018-10-11T00:26:14.749Z,35.68
2018-10-11T00:28:45.973Z,37.30
2018-10-11T00:31:18.043Z,33.80
2018-10-11T00:33:49.390Z,31.30
2018-10-11T00:38:56.488Z,28.37
2018-10-11T00:41:27.702Z,35.03
2018-10-11T00:43:59.722Z,31.97
2018-10-11T00:46:30.601Z,37.17
2018-10-11T00:49:01.883Z,36.25
2018-10-11T00:51:33.357Z,34.25
2018-10-11T00:54:04.580Z,35.33
2018-10-11T00:56:37.518Z,31.47
2018-10-11T00:59:09.399Z,35.50
2018-10-11T01:01:41.355Z,34.97
2018-10-11T01:04:12.588Z,35.45
2018-10-11T01:06:48.313Z,33.70
2018-10-11T01:09:19.230Z,35.88
2018-10-11T01:11:50.479Z,34.50
2018-10-11T01:14:21.698Z,34.23
2018-10-11T01:19:29.987Z,35.90
2018-10-11T01:22:01.122Z,33.58
2018-10-11T01:27:09.209Z,33.50
2018-10-11T01:29:41.149Z,35.13
2018-10-11T01:32:13.055Z,36.88
2018-10-11T01:34:44.863Z,31.87
2018-10-11T01:37:16.298Z,32.58
2018-10-11T01:39:48.394Z,35.50
2018-10-11T01:42:19.796Z,37.38
2018-10-11T01:44:51.118Z,32.40
2018-10-11T01:47:22.661Z,35.05
2018-10-11T01:49:53.882Z,34.03
2018-10-11T01:52:24.947Z,35.77
2018-10-11T01:54:55.824Z,33.77
2018-10-11T01:57:27.014Z,31.60
2018-10-11T02:02:34.432Z,31.30
2018-10-11T02:05:05.455Z,35.80
2018-10-11T02:10:12.289Z,35.00
2018-10-11T02:12:43.780Z,37.25
2018-10-11T02:15:15.588Z,38.43
2018-10-11T02:17:47.220Z,35.20
2018-10-11T02:20:18.441Z,36.48
2018-10-11T02:22:49.440Z,33.03
2018-10-11T02:25:20.545Z,33.38
2018-10-11T02:27:51.934Z,32.48
2018-10-11T02:30:23.067Z,38.17
2018-10-11T02:32:54.005Z,38.10
2018-10-11T02:35:25.045Z,32.75
2018-10-11T02:37:56.500Z,36.67
2018-10-11T02:40:27.456Z,32.53
2018-10-11T02:42:58.912Z,38.77
2018-10-11T02:45:30.975Z,37.70
2018-10-11T02:48:02.230Z,36.28
2018-10-11T02:50:33.095Z,37.90
2018-10-11T02:53:07.595Z,35.47
2018-10-11T02:55:39.205Z,36.67
2018-10-11T02:58:26.657Z,35.63
2018-10-11T03:00:57.942Z,38.23
2018-10-11T03:03:30.986Z,38.43
2018-10-11T03:06:02.781Z,37.67
2018-10-11T03:08:34.776Z,34.10
2018-10-11T03:11:06.705Z,33.85
2018-10-11T03:13:38.197Z,38.70
2018-10-11T03:16:09.290Z,32.57
2018-10-11T03:18:40.315Z,36.07
2018-10-11T03:21:11.367Z,35.65
2018-10-11T03:23:42.572Z,36.60
2018-10-11T03:26:13.578Z,38.13
2018-10-11T03:31:20.508Z,38.73
2018-10-11T03:33:55.476Z,39.40
2018-10-11T03:36:27.235Z,43.30
2018-10-11T03:38:58.303Z,41.92
2018-10-11T03:41:29.066Z,41.20
2018-10-11T03:44:00.220Z,41.10
2018-10-11T03:49:08.496Z,41.77
2018-10-11T03:51:40.061Z,40.87
2018-10-11T03:54:10.941Z,39.13
2018-10-11T03:56:41.936Z,42.13
2018-10-11T03:59:13.252Z,42.83
2018-10-11T04:01:45.061Z,39.30
2018-10-11T04:04:16.257Z,39.67
2018-10-11T04:06:47.064Z,36.42
2018-10-11T04:09:18.030Z,38.02
2018-10-11T04:14:24.951Z,41.67
2018-10-11T04:16:56.997Z,38.17
2018-10-11T04:19:28.341Z,42.75
2018-10-11T04:21:59.704Z,40.33
2018-10-11T04:24:30.854Z,38.57
2018-10-11T04:27:01.900Z,40.17
2018-10-11T04:32:09.363Z,40.00
2018-10-11T04:34:40.481Z,35.57
2018-10-11T04:37:11.643Z,40.48
2018-10-11T04:39:49.311Z,40.40
2018-10-11T04:42:20.802Z,41.48
2018-10-11T04:44:52.242Z,43.13
2018-10-11T04:47:23.669Z,41.60
2018-10-11T04:49:54.737Z,38.17
2018-10-11T04:52:25.899Z,39.30
2018-10-11T04:54:57.261Z,37.57
2018-10-11T04:57:28.204Z,40.93
2018-10-11T04:59:59.108Z,37.10
2018-10-11T05:02:34.439Z,41.37
2018-10-11T05:05:06.817Z,38.80
2018-10-11T05:07:38.077Z,43.75
2018-10-11T05:12:44.955Z,44.80
2018-10-11T05:17:52.510Z,42.33
2018-10-11T05:20:23.216Z,43.05
2018-10-11T05:22:53.891Z,42.00
2018-10-11T05:25:24.542Z,41.97
2018-10-11T05:27:55.100Z,45.10
2018-10-11T05:30:26.284Z,44.13
2018-10-11T05:32:57.025Z,42.40
2018-10-11T05:35:28.037Z,41.15
2018-10-11T05:37:58.910Z,40.30
2018-10-11T05:40:31.462Z,41.43
2018-10-11T05:43:02.290Z,41.45
2018-10-11T05:48:09.011Z,45.87
2018-10-11T05:50:40.257Z,44.30
2018-10-11T05:53:11.114Z,40.30
2018-10-11T05:55:42.389Z,41.02
2018-10-11T05:58:12.936Z,40.63
2018-10-11T06:03:19.379Z,39.83
2018-10-11T06:05:52.765Z,38.50
2018-10-11T06:10:59.616Z,33.57
2018-10-11T06:16:07.467Z,36.27
2018-10-11T06:18:38.402Z,39.50
2018-10-11T06:21:10.160Z,39.43
2018-10-11T06:23:41.092Z,29.33
2018-10-11T06:28:48.615Z,37.83
2018-10-11T06:31:19.463Z,35.75
2018-10-11T06:33:50.579Z,35.53
2018-10-11T06:36:21.994Z,36.75
2018-10-11T06:38:53.506Z,33.77
2018-10-11T06:41:24.282Z,36.23
2018-10-11T06:43:55.332Z,33.93
2018-10-11T06:49:03.529Z,34.63
2018-10-11T06:51:34.772Z,31.47
2018-10-11T06:54:06.763Z,32.77
2018-10-11T06:56:37.380Z,32.13
2018-10-11T06:59:08.108Z,38.55
2018-10-11T07:01:39.057Z,37.13
2018-10-11T07:04:09.887Z,36.90
2018-10-11T07:06:40.882Z,32.83
2018-10-11T07:09:11.777Z,32.88
2018-10-11T07:11:42.952Z,33.57
2018-10-11T07:14:13.805Z,33.87
2018-10-11T07:16:45.656Z,34.07
2018-10-11T07:19:17.565Z,36.03
2018-10-11T07:21:48.229Z,33.90
2018-10-11T07:26:55.718Z,33.07
2018-10-11T07:30:29.543Z,34.00
2018-10-11T07:33:01.411Z,39.03
2018-10-11T07:35:32.558Z,36.27
2018-10-11T07:38:03.627Z,39.95
2018-10-11T07:40:35.096Z,39.43
2018-10-11T07:43:07.191Z,34.18
2018-10-11T07:48:14.684Z,36.87
2018-10-11T07:50:45.271Z,36.90
2018-10-11T07:53:16.170Z,37.37
2018-10-11T07:55:46.875Z,35.70
2018-10-11T07:58:18.145Z,39.57
2018-10-11T08:00:49.246Z,35.20
2018-10-11T08:03:20.301Z,33.48
2018-10-11T08:05:51.026Z,34.58
2018-10-11T08:08:21.715Z,37.90
2018-10-11T08:10:52.426Z,36.50
2018-10-11T08:13:23.788Z,36.68
2018-10-11T08:15:54.283Z,39.98
2018-10-11T08:18:24.981Z,42.97
2018-10-11T08:20:56.121Z,35.73
2018-10-11T08:23:26.819Z,38.83
2018-10-11T08:25:57.950Z,36.17
2018-10-11T08:28:28.616Z,35.73
2018-10-11T08:30:59.963Z,38.23
2018-10-11T08:33:30.727Z,35.90
2018-10-11T08:36:01.599Z,40.73
2018-10-11T08:38:32.685Z,35.30
2018-10-11T08:41:03.703Z,36.20
2018-10-11T08:43:35.027Z,36.47
2018-10-11T08:46:06.715Z,37.45
2018-10-11T08:48:38.048Z,35.17
2018-10-11T08:51:09.032Z,40.47
2018-10-11T08:53:39.999Z,41.13
2018-10-11T08:56:10.492Z,35.63
2018-10-11T08:58:41.540Z,35.43
2018-10-11T09:01:12.195Z,35.08
2018-10-11T09:03:43.165Z,35.20
2018-10-11T09:06:13.749Z,34.00
2018-10-11T09:08:44.302Z,35.43
2018-10-11T09:11:15.533Z,34.10
2018-10-11T09:13:46.244Z,34.98
2018-10-11T09:16:17.320Z,35.23
2018-10-11T09:18:50.281Z,33.78
2018-10-11T09:21:21.057Z,34.30
2018-10-11T09:23:52.373Z,34.35
2018-10-11T09:26:23.104Z,35.25
2018-10-11T09:28:54.711Z,33.43
2018-10-11T09:31:25.517Z,31.80
2018-10-11T09:33:56.650Z,31.37
2018-10-11T09:36:27.552Z,29.57
2018-10-11T09:38:58.279Z,34.08
2018-10-11T09:41:28.977Z,32.77
2018-10-11T09:44:00.457Z,34.08
2018-10-11T09:46:31.285Z,35.33
2018-10-11T09:49:02.419Z,31.40
2018-10-11T09:51:33.112Z,31.37
2018-10-11T09:54:04.160Z,32.23
2018-10-11T09:57:20.707Z,36.08
2018-10-11T09:59:51.719Z,34.20
2018-10-11T10:02:28.637Z,34.88
2018-10-11T10:05:02.634Z,33.85
2018-10-11T10:07:37.265Z,35.43
2018-10-11T10:10:08.784Z,31.93
2018-10-11T10:12:39.683Z,35.43
2018-10-11T10:15:10.604Z,36.13
2018-10-11T10:17:44.368Z,37.20
2018-10-11T10:20:16.019Z,33.60
2018-10-11T10:22:46.665Z,38.40
2018-10-11T10:25:17.476Z,37.20
2018-10-11T10:27:48.277Z,33.13
2018-10-11T10:30:24.167Z,34.35
2018-10-11T10:35:32.869Z,33.83
2018-10-11T10:38:03.697Z,32.88
2018-10-11T10:40:34.532Z,32.00
2018-10-11T10:43:05.116Z,32.17
2018-10-11T10:45:36.376Z,34.13
2018-10-11T10:48:07.280Z,35.17
2018-10-11T10:50:38.294Z,30.83
2018-10-11T10:53:09.529Z,34.37
2018-10-11T10:55:41.005Z,37.97
2018-10-11T10:58:11.569Z,31.68
2018-10-11T11:00:42.778Z,33.93
2018-10-11T11:03:13.551Z,33.73
2018-10-11T11:05:44.102Z,32.40
2018-10-11T11:08:15.280Z,34.03
2018-10-11T11:10:46.084Z,34.87
2018-10-11T11:13:19.811Z,35.80
2018-10-11T11:15:50.375Z,33.27
2018-10-11T11:18:21.123Z,33.73
2018-10-11T11:20:51.961Z,36.55
2018-10-11T11:23:22.953Z,33.67
2018-10-11T11:25:53.741Z,32.42
2018-10-11T11:31:00.210Z,33.27
2018-10-11T11:33:30.755Z,34.23
2018-10-11T11:36:01.830Z,35.52
2018-10-11T11:38:32.644Z,35.48
2018-10-11T11:41:03.861Z,34.35
2018-10-11T11:43:34.667Z,35.03
2018-10-11T11:46:06.544Z,36.87
2018-10-11T11:48:37.143Z,35.63
2018-10-11T11:51:09.212Z,35.08
2018-10-11T11:53:41.208Z,36.47
2018-10-11T11:56:11.999Z,35.10
2018-10-11T11:58:43.006Z,35.15
2018-10-11T12:01:14.765Z,34.23
2018-10-11T12:03:45.501Z,32.43
2018-10-11T12:06:15.931Z,30.97
2018-10-11T12:08:46.592Z,28.30
2018-10-11T12:11:17.228Z,28.30
2018-10-11T12:13:47.962Z,31.27
2018-10-11T12:16:18.757Z,30.25
2018-10-11T12:18:49.549Z,28.20
2018-10-11T12:21:21.007Z,29.57
2018-10-11T12:23:51.518Z,28.55
2018-10-11T12:26:22.645Z,32.63
2018-10-11T12:28:53.753Z,29.57
2018-10-11T12:31:24.433Z,30.70
2018-10-11T12:33:55.582Z,28.80
2018-10-11T12:36:26.564Z,26.33
2018-10-11T12:38:57.047Z,26.50
2018-10-11T12:44:03.635Z,26.57
2018-10-11T12:46:34.967Z,26.57
2018-10-11T12:49:06.229Z,26.10
2018-10-11T12:51:36.934Z,27.52
2018-10-11T12:56:47.840Z,27.80
2018-10-11T12:59:18.578Z,22.30
2018-10-11T13:01:49.435Z,24.27
2018-10-11T13:04:20.579Z,25.00
2018-10-11T13:06:51.334Z,24.43
2018-10-11T13:09:22.361Z,23.30
2018-10-11T13:11:53.003Z,24.12
2018-10-11T13:14:24.472Z,24.73
2018-10-11T13:16:56.008Z,22.87
2018-10-11T13:19:26.720Z,23.10
2018-10-11T13:21:57.943Z,22.83
2018-10-11T13:24:28.677Z,23.52
2018-10-11T13:26:59.965Z,23.17
2018-10-11T13:29:34.708Z,21.02
2018-10-11T13:32:05.785Z,21.47
2018-10-11T13:34:36.334Z,22.40
2018-10-11T13:37:07.635Z,22.00
2018-10-11T13:39:38.446Z,21.05
2018-10-11T13:42:09.787Z,22.07
2018-10-11T13:44:41.298Z,21.93
2018-10-11T13:47:12.262Z,25.15
2018-10-11T13:49:43.580Z,22.98
2018-10-11T13:52:17.049Z,23.35
2018-10-11T13:54:45.291Z,22.95
2018-10-11T13:59:52.165Z,22.47
2018-10-11T14:02:23.371Z,19.70
2018-10-11T14:04:53.986Z,21.80
2018-10-11T14:07:31.313Z,19.95
2018-10-11T14:10:02.347Z,20.82
2018-10-11T14:12:33.763Z,20.30
2018-10-11T14:15:05.391Z,19.87
2018-10-11T14:20:11.949Z,20.00
2018-10-11T14:22:43.822Z,19.98
2018-10-11T14:27:51.086Z,20.83
2018-10-11T14:30:21.939Z,20.70
2018-10-11T14:32:52.467Z,19.70
2018-10-11T14:35:23.469Z,17.80
2018-10-11T14:40:30.093Z,17.93
2018-10-11T14:43:00.996Z,19.75
2018-10-11T14:45:32.414Z,17.40
2018-10-11T14:48:04.684Z,19.53
2018-10-11T14:53:12.603Z,17.70
2018-10-11T14:55:44.275Z,19.27
2018-10-11T14:58:15.307Z,19.80
2018-10-11T15:00:46.033Z,17.23
2018-10-11T15:03:17.220Z,20.72
2018-10-11T15:05:47.910Z,19.98
2018-10-11T15:10:54.574Z,22.53
2018-10-11T15:13:25.677Z,21.93
2018-10-11T15:15:56.491Z,22.23
2018-10-11T15:18:27.599Z,20.00
2018-10-11T15:20:58.889Z,21.17
2018-10-11T15:23:29.610Z,23.10
2018-10-11T15:26:00.356Z,23.17
2018-10-11T15:28:31.477Z,22.42
2018-10-11T15:31:02.267Z,23.77
2018-10-11T15:33:34.023Z,26.35
2018-10-11T15:36:05.205Z,23.38
2018-10-11T15:41:12.849Z,25.43
2018-10-11T15:43:43.918Z,24.02
2018-10-11T15:46:14.845Z,26.50
2018-10-11T15:48:45.756Z,28.73
2018-10-11T15:51:16.776Z,25.52
2018-10-11T15:53:47.813Z,25.70
2018-10-11T15:56:18.989Z,27.10
2018-10-11T15:58:49.789Z,26.17
2018-10-11T16:01:20.895Z,25.03
2018-10-11T16:03:51.872Z,25.62
2018-10-11T16:06:22.960Z,24.43
2018-10-11T16:08:54.730Z,27.07
2018-10-11T16:11:25.582Z,29.03
2018-10-11T16:13:56.794Z,30.23
2018-10-11T16:16:27.438Z,26.33
2018-10-11T16:18:58.192Z,27.58
2018-10-11T16:21:29.696Z,28.13
2018-10-11T16:24:00.920Z,28.40
2018-10-11T16:26:31.794Z,28.77
2018-10-11T16:29:03.774Z,27.80
2018-10-11T16:31:34.752Z,33.03
2018-10-11T16:34:06.272Z,29.15
2018-10-11T16:36:36.818Z,31.30
2018-10-11T16:39:09.390Z,33.80
2018-10-11T16:41:40.421Z,32.53
2018-10-11T16:44:11.583Z,30.15
2018-10-11T16:46:42.520Z,33.53
2018-10-11T16:49:17.392Z,32.15
2018-10-11T16:51:48.355Z,30.88
2018-10-11T16:54:18.991Z,29.45
2018-10-11T16:56:49.811Z,32.80
2018-10-11T16:59:20.703Z,32.33
2018-10-11T17:04:28.501Z,32.00
2018-10-11T17:06:59.444Z,34.93
2018-10-11T17:09:30.449Z,30.43
2018-10-11T17:12:02.014Z,32.93
2018-10-11T17:14:33.079Z,34.70
2018-10-11T17:17:03.881Z,33.83
2018-10-11T17:21:22.726Z,31.40
2018-10-11T17:23:55.829Z,30.80
2018-10-11T17:26:27.601Z,30.90
2018-10-11T17:28:59.937Z,30.27
2018-10-11T17:31:31.524Z,30.63
2018-10-11T17:34:03.132Z,32.85
2018-10-11T17:36:34.840Z,32.70
2018-10-11T17:39:09.832Z,30.47
2018-10-11T17:44:18.973Z,32.63
2018-10-11T17:46:50.562Z,34.15
2018-10-11T17:49:22.880Z,33.60
2018-10-11T17:51:54.588Z,33.58
2018-10-11T17:54:26.358Z,34.40
2018-10-11T17:56:58.112Z,33.75
2018-10-11T17:59:29.815Z,29.33
2018-10-11T18:02:11.947Z,27.30
2018-10-11T18:04:44.359Z,26.90
2018-10-11T18:07:16.172Z,27.65
2018-10-11T18:09:47.822Z,27.15
2018-10-11T18:12:19.446Z,27.20
2018-10-11T18:14:51.013Z,24.95
2018-10-11T18:17:26.985Z,28.50
2018-10-11T18:19:58.841Z,27.27
2018-10-11T18:22:30.603Z,24.57
2018-10-11T18:25:02.069Z,25.05
2018-10-11T18:27:33.981Z,26.03
2018-10-11T18:32:42.328Z,25.97
2018-10-11T18:35:13.927Z,24.13
2018-10-11T18:37:45.472Z,26.00
2018-10-11T18:40:17.511Z,22.40
2018-10-11T18:42:49.857Z,24.83
2018-10-11T18:45:21.425Z,25.48
2018-10-11T18:47:52.795Z,24.95
2018-10-11T18:50:24.542Z,23.42
2018-10-11T18:52:56.192Z,28.10
2018-10-11T18:55:28.386Z,26.50
2018-10-11T18:58:00.595Z,25.05
2018-10-11T19:00:32.096Z,23.60
2018-10-11T19:03:04.269Z,26.67
2018-10-11T19:05:36.279Z,27.70
2018-10-11T19:08:08.036Z,25.20
2018-10-11T19:10:39.611Z,25.60
2018-10-11T19:13:11.672Z,25.25
2018-10-11T19:15:43.511Z,25.13
2018-10-11T19:18:15.712Z,26.95
2018-10-11T19:20:47.230Z,27.77
2018-10-11T19:25:58.714Z,27.37
2018-10-11T19:28:32.143Z,25.37
2018-10-11T19:31:06.671Z,27.00
2018-10-11T19:33:38.574Z,28.50
2018-10-11T19:38:49.207Z,27.07
2018-10-11T19:41:21.535Z,27.20
2018-10-11T19:43:57.257Z,27.35
2018-10-11T19:46:28.825Z,26.67
2018-10-11T19:49:01.157Z,28.60
2018-10-11T19:51:33.084Z,27.95
2018-10-11T19:54:05.183Z,27.75
2018-10-11T19:56:37.169Z,27.77
2018-10-11T19:59:09.540Z,29.50
2018-10-11T20:01:42.108Z,33.53
2018-10-11T20:04:14.023Z,33.13
2018-10-11T20:06:45.993Z,35.97
2018-10-11T20:09:17.588Z,35.63
2018-10-11T20:11:49.002Z,29.87
2018-10-11T20:14:21.412Z,31.15
2018-10-11T20:16:53.394Z,28.32
2018-10-11T20:19:25.146Z,30.10
2018-10-11T20:21:57.027Z,28.70
2018-10-11T20:24:28.941Z,27.00
2018-10-11T20:27:01.350Z,25.88
2018-10-11T20:29:33.707Z,26.70
2018-10-11T20:32:06.829Z,26.40
2018-10-11T20:34:38.836Z,27.60
2018-10-11T20:37:10.516Z,30.37
2018-10-11T20:39:42.427Z,26.47
2018-10-11T20:42:14.611Z,29.60
2018-10-11T20:44:46.673Z,28.33
2018-10-11T20:47:18.913Z,29.57
2018-10-11T20:49:51.017Z,28.57
2018-10-11T20:52:22.889Z,27.43
2018-10-11T20:54:54.648Z,30.40
2018-10-11T21:00:03.316Z,25.63
2018-10-11T21:02:35.563Z,27.73
2018-10-11T21:05:07.641Z,27.22
2018-10-11T21:07:39.509Z,28.67
2018-10-11T21:10:16.206Z,27.05
2018-10-11T21:12:48.310Z,28.02
2018-10-11T21:15:20.280Z,27.25
2018-10-11T21:17:52.278Z,25.40
2018-10-11T21:20:24.289Z,30.17
2018-10-11T21:22:55.862Z,25.55
2018-10-11T21:25:27.620Z,23.77
2018-10-11T21:27:59.257Z,25.00
2018-10-11T21:30:31.091Z,22.42
2018-10-11T21:33:03.198Z,26.05
2018-10-11T21:35:35.196Z,24.67
2018-10-11T21:38:07.168Z,25.23
2018-10-11T21:40:39.551Z,23.33
2018-10-11T21:43:11.941Z,23.35
2018-10-11T21:45:44.357Z,22.67
2018-10-11T21:48:16.147Z,22.40
2018-10-11T21:50:48.128Z,23.38
2018-10-11T21:53:19.961Z,21.77
2018-10-11T21:55:51.639Z,25.95
2018-10-11T21:58:23.620Z,22.40
2018-10-11T22:01:01.077Z,22.47
2018-10-11T22:03:33.103Z,22.48
2018-10-11T22:06:05.385Z,21.85
2018-10-11T22:11:14.535Z,23.20
2018-10-11T22:13:46.407Z,23.42
2018-10-11T22:16:19.145Z,23.40
2018-10-11T22:18:51.974Z,25.70
2018-10-11T22:21:23.737Z,23.42
2018-10-11T22:23:55.741Z,24.57
2018-10-11T22:29:03.446Z,23.50
2018-10-11T22:31:35.432Z,22.70
2018-10-11T22:34:07.398Z,22.37
2018-10-11T22:39:16.050Z,24.20
2018-10-11T22:41:48.072Z,23.52
2018-10-11T22:44:20.109Z,25.27
2018-10-11T22:49:29.840Z,24.47
2018-10-11T22:52:01.612Z,22.32
2018-10-11T22:54:33.220Z,23.63
2018-10-11T22:57:05.899Z,23.62
2018-10-11T23:02:14.258Z,22.27
2018-10-11T23:07:22.584Z,20.93
2018-10-11T23:09:54.440Z,20.50
2018-10-11T23:12:26.414Z,23.97
2018-10-11T23:14:58.430Z,22.77
2018-10-11T23:17:30.746Z,22.87
2018-10-11T23:20:02.975Z,22.48
2018-10-11T23:22:35.773Z,21.10
2018-10-11T23:25:07.883Z,23.83
2018-10-11T23:27:40.278Z,24.20
2018-10-11T23:30:13.220Z,23.27
2018-10-11T23:35:20.774Z,24.40
2018-10-11T23:37:52.481Z,23.38
2018-10-11T23:43:00.123Z,22.77
2018-10-11T23:45:31.843Z,25.12
2018-10-11T23:48:03.878Z,24.37
2018-10-11T23:50:36.451Z,23.22
2018-10-11T23:53:08.949Z,21.70
2018-10-11T23:55:44.897Z,24.87
2018-10-11T23:58:16.689Z,21.93
